createdAt,value
2023-05-19T00:00:16.665Z,2.90
2023-05-19T00:02:50.702Z,2.88
2023-05-19T00:05:24.309Z,3.20
2023-05-19T00:07:59.211Z,2.83
2023-05-19T00:10:32.681Z,2.90
2023-05-19T00:13:05.741Z,2.65
2023-05-19T00:15:38.767Z,3.10
2023-05-19T00:18:13.325Z,3.45
2023-05-19T00:20:45.862Z,2.67
2023-05-19T00:23:18.265Z,3.10
2023-05-19T00:25:51.604Z,2.40
2023-05-19T00:28:24.062Z,3.17
2023-05-19T00:30:56.488Z,4.38
2023-05-19T00:33:29.637Z,5.10
2023-05-19T00:36:02.926Z,3.58
2023-05-19T00:38:36.678Z,3.33
2023-05-19T00:41:09.227Z,3.22
2023-05-19T00:43:41.674Z,2.50
2023-05-19T00:46:14.165Z,3.20
2023-05-19T00:48:47.275Z,3.65
2023-05-19T00:51:19.824Z,4.15
2023-05-19T00:53:52.677Z,3.03
2023-05-19T00:56:25.820Z,2.90
2023-05-19T00:58:59.188Z,2.83
2023-05-19T01:01:32.066Z,2.25
2023-05-19T01:04:09.136Z,3.22
2023-05-19T01:06:43.047Z,2.50
2023-05-19T01:09:16.189Z,2.33
2023-05-19T01:11:48.655Z,2.15
2023-05-19T01:14:21.320Z,2.65
2023-05-19T01:17:04.654Z,2.50
2023-05-19T01:19:54.040Z,2.50
2023-05-19T01:22:47.989Z,2.40
2023-05-19T01:25:42.587Z,2.53
2023-05-19T01:28:58.318Z,3.35
2023-05-19T01:31:33.605Z,2.75
2023-05-19T01:34:06.548Z,2.80
2023-05-19T01:36:44.111Z,3.10
2023-05-19T01:39:17.022Z,2.80
2023-05-19T01:41:50.612Z,2.33
2023-05-19T01:44:23.858Z,2.50
2023-05-19T01:46:57.190Z,2.67
2023-05-19T01:49:29.588Z,2.97
2023-05-19T01:52:02.280Z,2.97
2023-05-19T01:54:34.750Z,3.10
2023-05-19T01:57:15.763Z,2.80
2023-05-19T01:59:58.744Z,3.33
2023-05-19T02:02:43.837Z,3.28
2023-05-19T02:05:28.676Z,2.95
2023-05-19T02:08:12.703Z,4.40
2023-05-19T02:10:50.532Z,3.30
2023-05-19T02:13:27.930Z,3.17
2023-05-19T02:16:05.042Z,3.83
2023-05-19T02:18:39.927Z,6.07
2023-05-19T02:21:12.906Z,6.45
2023-05-19T02:23:45.417Z,7.13
2023-05-19T02:26:18.106Z,5.30
2023-05-19T02:28:50.464Z,5.90
2023-05-19T02:31:23.500Z,5.68
2023-05-19T02:33:56.511Z,5.32
2023-05-19T02:36:30.512Z,4.28
2023-05-19T02:39:03.113Z,3.95
2023-05-19T02:41:35.617Z,4.03
2023-05-19T02:44:08.221Z,4.90
2023-05-19T02:46:41.931Z,4.88
2023-05-19T02:49:15.220Z,4.95
2023-05-19T02:51:47.745Z,6.68
2023-05-19T02:54:20.082Z,5.65
2023-05-19T02:56:52.628Z,4.65
2023-05-19T02:59:25.617Z,4.03
2023-05-19T03:02:00.104Z,4.65
2023-05-19T03:04:41.331Z,4.32
2023-05-19T03:07:14.839Z,4.90
2023-05-19T03:09:47.212Z,5.15
2023-05-19T03:12:20.026Z,4.40
2023-05-19T03:14:52.522Z,5.53
2023-05-19T03:17:25.248Z,5.28
2023-05-19T03:19:58.336Z,5.35
2023-05-19T03:22:31.643Z,4.78
2023-05-19T03:25:04.730Z,5.30
2023-05-19T03:27:37.860Z,5.35
2023-05-19T03:30:11.506Z,5.30
2023-05-19T03:32:56.678Z,5.43
2023-05-19T03:35:29.809Z,4.68
2023-05-19T03:38:02.241Z,5.57
2023-05-19T03:40:35.590Z,5.90
2023-05-19T03:43:11.810Z,5.30
2023-05-19T03:45:51.173Z,5.30
2023-05-19T03:48:42.445Z,5.00
2023-05-19T03:51:46.356Z,5.20
2023-05-19T03:54:36.525Z,5.13
2023-05-19T03:57:09.244Z,4.60
2023-05-19T03:59:41.663Z,5.60
2023-05-19T04:02:14.097Z,4.47
2023-05-19T04:04:46.614Z,4.93
2023-05-19T04:07:19.803Z,5.13
2023-05-19T04:09:52.270Z,5.25
2023-05-19T04:12:24.645Z,4.00
2023-05-19T04:14:58.474Z,5.28
2023-05-19T04:17:30.904Z,4.15
2023-05-19T04:20:05.107Z,4.90
2023-05-19T04:22:38.232Z,4.30
2023-05-19T04:25:11.206Z,5.05
2023-05-19T04:27:43.648Z,5.38
2023-05-19T04:30:21.475Z,4.75
2023-05-19T04:32:54.034Z,4.57
2023-05-19T04:35:26.675Z,5.60
2023-05-19T04:38:00.986Z,4.35
2023-05-19T04:40:36.476Z,5.22
2023-05-19T04:43:08.961Z,5.43
2023-05-19T04:45:42.290Z,4.10
2023-05-19T04:48:16.331Z,4.55
2023-05-19T04:50:49.005Z,5.60
2023-05-19T04:53:22.186Z,3.97
2023-05-19T04:55:56.035Z,4.75
2023-05-19T04:58:28.600Z,4.28
2023-05-19T05:01:01.406Z,4.80
2023-05-19T05:03:34.633Z,4.15
2023-05-19T05:06:08.185Z,4.35
2023-05-19T05:08:42.008Z,5.10
2023-05-19T05:11:15.357Z,4.47
2023-05-19T05:13:48.938Z,4.10
2023-05-19T05:16:22.252Z,4.78
2023-05-19T05:18:55.683Z,4.18
2023-05-19T05:21:28.934Z,4.88
2023-05-19T05:24:02.702Z,5.05
2023-05-19T05:26:38.081Z,4.10
2023-05-19T05:29:11.275Z,4.70
2023-05-19T05:31:43.813Z,4.57
2023-05-19T05:34:17.163Z,3.70
2023-05-19T05:36:50.426Z,4.60
2023-05-19T05:39:24.664Z,4.00
2023-05-19T05:41:57.160Z,4.55
2023-05-19T05:44:29.915Z,3.88
2023-05-19T05:47:04.041Z,4.65
2023-05-19T05:49:37.534Z,3.95
2023-05-19T05:52:12.046Z,3.80
2023-05-19T05:54:51.353Z,4.38
2023-05-19T05:57:26.330Z,4.20
2023-05-19T05:59:59.491Z,3.50
2023-05-19T06:02:33.336Z,3.35
2023-05-19T06:05:06.163Z,4.15
2023-05-19T06:07:39.002Z,3.47
2023-05-19T06:10:12.188Z,4.00
2023-05-19T06:12:44.763Z,3.33
2023-05-19T06:15:17.791Z,3.55
2023-05-19T06:18:03.469Z,3.35
2023-05-19T06:20:35.991Z,2.95
2023-05-19T06:23:08.787Z,3.08
2023-05-19T06:25:42.322Z,2.95
2023-05-19T06:28:15.289Z,3.30
2023-05-19T06:30:47.787Z,4.22
2023-05-19T06:33:29.100Z,3.22
2023-05-19T06:36:02.054Z,3.88
2023-05-19T06:38:35.015Z,3.60
2023-05-19T06:41:08.334Z,3.63
2023-05-19T06:43:42.226Z,3.55
2023-05-19T06:46:19.304Z,3.35
2023-05-19T06:48:51.721Z,3.97
2023-05-19T06:51:28.754Z,3.45
2023-05-19T06:54:02.737Z,3.53
2023-05-19T06:56:35.842Z,2.97
2023-05-19T06:59:08.230Z,3.40
2023-05-19T07:01:42.730Z,3.63
2023-05-19T07:04:15.724Z,3.35
2023-05-19T07:06:49.545Z,3.80
2023-05-19T07:09:22.061Z,2.88
2023-05-19T07:11:55.990Z,3.63
2023-05-19T07:14:28.451Z,3.80
2023-05-19T07:17:01.021Z,4.47
2023-05-19T07:19:33.468Z,4.85
2023-05-19T07:22:06.342Z,4.32
2023-05-19T07:24:38.804Z,3.50
2023-05-19T07:27:11.904Z,4.72
2023-05-19T07:29:44.314Z,4.60
2023-05-19T07:32:16.679Z,4.32
2023-05-19T07:34:49.067Z,4.00
2023-05-19T07:37:21.555Z,4.05
2023-05-19T07:39:54.038Z,4.70
2023-05-19T07:42:27.079Z,4.45
2023-05-19T07:44:59.375Z,4.65
2023-05-19T07:47:31.768Z,5.30
2023-05-19T07:50:04.715Z,5.28
2023-05-19T07:52:37.153Z,4.03
2023-05-19T07:55:09.641Z,4.65
2023-05-19T07:57:42.709Z,4.30
2023-05-19T08:00:17.093Z,4.50
2023-05-19T08:02:49.447Z,4.95
2023-05-19T08:05:21.982Z,4.70
2023-05-19T08:07:54.363Z,5.70
2023-05-19T08:10:26.709Z,4.63
2023-05-19T08:12:59.747Z,4.57
2023-05-19T08:15:32.526Z,4.13
2023-05-19T08:18:04.972Z,5.38
2023-05-19T08:20:37.376Z,5.93
2023-05-19T08:23:09.958Z,5.18
2023-05-19T08:25:42.261Z,4.75
2023-05-19T08:28:15.267Z,5.32
2023-05-19T08:30:47.582Z,5.50
2023-05-19T08:33:20.928Z,5.25
2023-05-19T08:35:54.680Z,5.45
2023-05-19T08:38:27.165Z,4.95
2023-05-19T08:40:59.591Z,5.53
2023-05-19T08:43:32.681Z,4.68
2023-05-19T08:46:06.326Z,6.05
2023-05-19T08:48:42.185Z,6.57
2023-05-19T08:51:20.283Z,5.50
2023-05-19T08:53:57.053Z,5.80
2023-05-19T08:56:31.152Z,6.28
2023-05-19T08:59:04.455Z,6.32
2023-05-19T09:04:16.696Z,6.18
2023-05-19T09:06:49.672Z,5.95
2023-05-19T09:09:22.275Z,5.57
2023-05-19T09:11:54.758Z,6.75
2023-05-19T09:14:28.877Z,6.28
2023-05-19T09:17:01.966Z,6.38
2023-05-19T09:19:34.490Z,6.00
2023-05-19T09:22:07.190Z,7.15
2023-05-19T09:24:40.101Z,6.00
2023-05-19T09:27:15.245Z,5.88
2023-05-19T09:29:49.473Z,6.60
2023-05-19T09:32:25.655Z,6.15
2023-05-19T09:34:58.042Z,6.13
2023-05-19T09:37:31.497Z,6.85
2023-05-19T09:40:04.935Z,7.30
2023-05-19T09:42:38.375Z,5.90
2023-05-19T09:45:11.525Z,6.82
2023-05-19T09:47:43.938Z,5.30
2023-05-19T09:50:16.348Z,7.40
2023-05-19T09:52:49.627Z,6.63
2023-05-19T09:55:26.195Z,7.00
2023-05-19T09:57:59.592Z,6.10
2023-05-19T10:00:33.830Z,7.10
2023-05-19T10:03:07.201Z,6.55
2023-05-19T10:05:40.965Z,6.43
2023-05-19T10:08:17.101Z,6.40
2023-05-19T10:10:49.557Z,6.93
2023-05-19T10:13:23.747Z,7.15
2023-05-19T10:15:59.244Z,6.70
2023-05-19T10:18:33.517Z,5.80
2023-05-19T10:21:07.442Z,6.22
2023-05-19T10:23:39.811Z,6.80
2023-05-19T10:26:13.200Z,7.07
2023-05-19T10:28:45.854Z,5.85
2023-05-19T10:31:22.715Z,6.28
2023-05-19T10:34:13.651Z,5.95
2023-05-19T10:36:49.484Z,5.60
2023-05-19T10:39:28.227Z,6.45
2023-05-19T10:42:11.393Z,6.03
2023-05-19T10:44:58.189Z,5.75
2023-05-19T10:47:32.979Z,6.38
2023-05-19T10:50:07.134Z,6.65
2023-05-19T10:52:40.250Z,6.00
2023-05-19T10:55:15.056Z,5.80
2023-05-19T10:57:53.664Z,5.50
2023-05-19T11:00:31.049Z,5.85
2023-05-19T11:03:14.762Z,5.80
2023-05-19T11:05:50.217Z,6.00
2023-05-19T11:08:35.773Z,5.57
2023-05-19T11:11:14.921Z,6.32
2023-05-19T11:13:48.034Z,5.72
2023-05-19T11:16:26.986Z,6.53
2023-05-19T11:19:00.394Z,5.50
2023-05-19T11:21:42.889Z,6.00
2023-05-19T11:24:33.022Z,5.00
2023-05-19T11:27:24.140Z,6.20
2023-05-19T11:29:58.570Z,6.70
2023-05-19T11:32:33.203Z,6.00
2023-05-19T11:35:07.500Z,5.80
2023-05-19T11:37:40.889Z,6.20
2023-05-19T11:40:15.399Z,5.57
2023-05-19T11:42:47.743Z,5.97
2023-05-19T11:45:25.393Z,6.35
2023-05-19T11:48:02.648Z,6.07
2023-05-19T11:50:37.690Z,5.20
2023-05-19T11:53:12.685Z,6.22
2023-05-19T11:55:46.551Z,6.05
2023-05-19T11:58:26.351Z,6.38
2023-05-19T12:01:03.671Z,5.70
2023-05-19T12:03:36.123Z,5.50
2023-05-19T12:06:10.294Z,5.45
2023-05-19T12:08:42.734Z,5.63
2023-05-19T12:11:15.101Z,5.95
2023-05-19T12:13:47.859Z,5.78
2023-05-19T12:16:20.414Z,5.80
2023-05-19T12:18:55.126Z,6.03
2023-05-19T12:21:33.647Z,4.80
2023-05-19T12:26:40.897Z,4.93
2023-05-19T12:29:13.352Z,4.38
2023-05-19T12:31:46.761Z,4.00
2023-05-19T12:34:19.256Z,4.07
2023-05-19T12:36:52.268Z,3.58
2023-05-19T12:39:24.721Z,6.10
2023-05-19T12:42:01.795Z,17.17
2023-05-19T12:44:37.829Z,14.75
2023-05-19T12:47:10.129Z,12.05
2023-05-19T12:49:54.348Z,17.15
2023-05-19T12:52:29.352Z,12.70
2023-05-19T12:55:05.443Z,7.68
2023-05-19T12:57:39.130Z,5.90
2023-05-19T13:00:16.723Z,6.25
2023-05-19T13:03:00.338Z,4.32
2023-05-19T13:05:35.154Z,6.07
2023-05-19T13:08:09.280Z,5.45
2023-05-19T13:10:43.888Z,5.00
2023-05-19T13:13:28.279Z,3.85
2023-05-19T13:16:01.190Z,4.00
2023-05-19T13:18:35.556Z,3.65
2023-05-19T13:21:07.925Z,4.13
2023-05-19T13:23:40.901Z,4.05
2023-05-19T13:26:13.452Z,3.85
2023-05-19T13:28:45.806Z,4.85
2023-05-19T13:31:18.991Z,4.15
2023-05-19T13:33:51.520Z,3.92
2023-05-19T13:36:24.889Z,4.05
2023-05-19T13:38:57.915Z,4.68
2023-05-19T13:41:30.280Z,4.97
2023-05-19T13:44:02.619Z,5.00
2023-05-19T13:46:44.663Z,4.35
2023-05-19T13:49:18.220Z,4.05
2023-05-19T13:51:50.540Z,3.83
2023-05-19T13:54:23.967Z,5.32
2023-05-19T13:56:56.722Z,5.32
2023-05-19T13:59:29.326Z,6.20
2023-05-19T14:02:02.214Z,4.68
2023-05-19T14:04:36.749Z,9.07
2023-05-19T14:07:11.396Z,6.07
2023-05-19T14:09:45.480Z,4.50
2023-05-19T14:12:17.917Z,5.55
2023-05-19T14:14:50.309Z,5.78
2023-05-19T14:17:22.740Z,5.75
2023-05-19T14:19:55.170Z,5.22
2023-05-19T14:22:27.536Z,4.85
2023-05-19T14:25:01.968Z,5.38
2023-05-19T14:27:34.443Z,4.57
2023-05-19T14:30:08.046Z,4.72
2023-05-19T14:32:40.455Z,4.95
2023-05-19T14:35:12.817Z,5.07
2023-05-19T14:37:45.133Z,4.22
2023-05-19T14:40:18.488Z,4.95
2023-05-19T14:42:50.800Z,5.07
2023-05-19T14:45:23.147Z,4.57
2023-05-19T14:47:55.566Z,4.63
2023-05-19T14:50:29.225Z,4.28
2023-05-19T14:53:01.909Z,4.53
2023-05-19T14:55:35.114Z,4.85
2023-05-19T14:58:15.967Z,4.68
2023-05-19T15:00:52.268Z,3.50
2023-05-19T15:03:24.968Z,4.05
2023-05-19T15:05:57.417Z,4.72
2023-05-19T15:08:29.752Z,3.75
2023-05-19T15:11:02.885Z,4.00
2023-05-19T15:13:35.228Z,4.43
2023-05-19T15:16:17.340Z,3.17
2023-05-19T15:18:51.147Z,4.82
2023-05-19T15:21:23.636Z,4.25
2023-05-19T15:23:56.005Z,5.18
2023-05-19T15:26:29.819Z,4.60
2023-05-19T15:29:02.293Z,3.88
2023-05-19T15:31:36.701Z,4.30
2023-05-19T15:34:10.614Z,4.65
2023-05-19T15:36:43.033Z,4.30
2023-05-19T15:39:15.498Z,4.20
2023-05-19T15:41:49.850Z,4.45
2023-05-19T15:44:22.258Z,4.22
2023-05-19T15:46:54.751Z,4.57
2023-05-19T15:49:27.084Z,4.38
2023-05-19T15:51:59.431Z,4.80
2023-05-19T15:54:31.808Z,4.30
2023-05-19T15:57:05.270Z,4.43
2023-05-19T15:59:37.626Z,4.57
2023-05-19T16:02:10.925Z,4.28
2023-05-19T16:04:43.386Z,4.72
2023-05-19T16:07:17.730Z,5.07
2023-05-19T16:09:50.299Z,4.70
2023-05-19T16:12:23.950Z,4.43
2023-05-19T16:14:56.277Z,4.45
2023-05-19T16:17:28.790Z,4.05
2023-05-19T16:20:01.858Z,3.75
2023-05-19T16:22:34.321Z,4.35
2023-05-19T16:25:08.153Z,4.18
2023-05-19T16:27:41.125Z,4.20
2023-05-19T16:30:13.983Z,4.40
2023-05-19T16:32:46.447Z,4.35
2023-05-19T16:35:18.986Z,5.72
2023-05-19T16:37:51.305Z,3.90
2023-05-19T16:40:23.660Z,4.45
2023-05-19T16:42:56.665Z,4.45
2023-05-19T16:45:31.807Z,4.35
2023-05-19T16:48:04.522Z,8.15
2023-05-19T16:50:37.281Z,5.13
2023-05-19T16:53:09.821Z,4.63
2023-05-19T16:55:42.195Z,4.88
2023-05-19T16:58:15.331Z,4.15
2023-05-19T17:00:51.198Z,6.45
2023-05-19T17:03:24.003Z,6.63
2023-05-19T17:05:56.595Z,5.28
2023-05-19T17:08:28.946Z,6.78
2023-05-19T17:11:01.433Z,16.17
2023-05-19T17:13:43.153Z,10.32
2023-05-19T17:16:15.744Z,12.40
2023-05-19T17:18:48.177Z,8.50
2023-05-19T17:21:20.874Z,10.13
2023-05-19T17:23:53.159Z,6.35
2023-05-19T17:26:25.787Z,5.45
2023-05-19T17:28:58.790Z,5.35
2023-05-19T17:31:33.671Z,4.80
2023-05-19T17:34:06.005Z,4.68
2023-05-19T17:36:38.449Z,4.20
2023-05-19T17:39:10.772Z,4.70
2023-05-19T17:41:43.240Z,4.90
2023-05-19T17:44:16.263Z,5.20
2023-05-19T17:46:48.661Z,4.47
2023-05-19T17:49:22.312Z,4.95
2023-05-19T17:51:55.295Z,5.35
2023-05-19T17:54:28.283Z,4.88
2023-05-19T17:57:03.600Z,4.93
2023-05-19T17:59:37.323Z,5.15
2023-05-19T18:02:11.265Z,6.22
2023-05-19T18:04:44.070Z,5.13
2023-05-19T18:07:18.750Z,5.22
2023-05-19T18:09:51.562Z,4.82
2023-05-19T18:12:23.907Z,5.13
2023-05-19T18:14:57.199Z,5.22
2023-05-19T18:17:29.562Z,6.07
2023-05-19T18:20:02.272Z,5.38
2023-05-19T18:22:35.182Z,5.28
2023-05-19T18:25:08.500Z,4.53
2023-05-19T18:27:41.891Z,4.70
2023-05-19T18:30:14.939Z,5.35
2023-05-19T18:32:47.332Z,4.70
2023-05-19T18:35:20.367Z,5.43
2023-05-19T18:37:55.165Z,8.13
2023-05-19T18:40:27.555Z,8.88
2023-05-19T18:42:59.902Z,14.77
2023-05-19T18:45:33.583Z,13.13
2023-05-19T18:48:07.378Z,10.05
2023-05-19T18:50:40.330Z,5.35
2023-05-19T18:53:12.654Z,5.70
2023-05-19T18:55:44.960Z,5.20
2023-05-19T18:58:18.080Z,6.55
2023-05-19T19:00:54.393Z,5.95
2023-05-19T19:03:27.842Z,6.38
2023-05-19T19:06:00.552Z,6.43
2023-05-19T19:08:35.610Z,5.93
2023-05-19T19:11:10.480Z,6.05
2023-05-19T19:13:43.279Z,5.53
2023-05-19T19:16:16.413Z,7.10
2023-05-19T19:18:48.931Z,8.93
2023-05-19T19:21:23.335Z,8.18
2023-05-19T19:23:57.009Z,7.57
2023-05-19T19:26:29.309Z,7.47
2023-05-19T19:29:01.901Z,6.97
2023-05-19T19:31:34.982Z,7.55
2023-05-19T19:34:08.710Z,7.53
2023-05-19T19:36:41.035Z,8.48
2023-05-19T19:39:13.556Z,6.75
2023-05-19T19:41:45.933Z,6.53
2023-05-19T19:44:18.263Z,5.97
2023-05-19T19:46:51.371Z,7.82
2023-05-19T19:49:23.773Z,6.63
2023-05-19T19:51:56.099Z,7.03
2023-05-19T19:54:28.516Z,7.43
2023-05-19T19:57:00.978Z,7.45
2023-05-19T19:59:33.361Z,8.73
2023-05-19T20:02:06.802Z,7.97
2023-05-19T20:04:39.461Z,7.15
2023-05-19T20:07:12.138Z,7.50
2023-05-19T20:09:44.744Z,6.63
2023-05-19T20:12:17.140Z,6.25
2023-05-19T20:14:50.741Z,6.40
2023-05-19T20:17:23.839Z,6.43
2023-05-19T20:19:56.252Z,6.72
2023-05-19T20:22:28.628Z,6.40
2023-05-19T20:25:01.671Z,5.47
2023-05-19T20:27:34.180Z,7.55
2023-05-19T20:30:07.782Z,5.90
2023-05-19T20:32:40.873Z,6.03
2023-05-19T20:35:13.435Z,5.93
2023-05-19T20:37:47.253Z,5.88
2023-05-19T20:40:19.797Z,5.60
2023-05-19T20:42:52.146Z,6.93
2023-05-19T20:45:25.038Z,7.15
2023-05-19T20:47:58.739Z,7.05
2023-05-19T20:50:31.229Z,7.03
2023-05-19T20:53:03.730Z,5.50
2023-05-19T20:55:37.196Z,5.97
2023-05-19T20:58:09.579Z,6.38
2023-05-19T21:00:41.964Z,6.65
2023-05-19T21:03:14.995Z,5.93
2023-05-19T21:05:47.325Z,5.97
2023-05-19T21:08:19.840Z,6.10
2023-05-19T21:10:52.257Z,5.60
2023-05-19T21:13:24.723Z,6.90
2023-05-19T21:15:57.072Z,5.95
2023-05-19T21:18:30.235Z,6.85
2023-05-19T21:21:03.545Z,6.53
2023-05-19T21:23:35.855Z,6.10
2023-05-19T21:26:08.199Z,12.27
2023-05-19T21:28:40.527Z,9.27
2023-05-19T21:31:13.003Z,9.02
2023-05-19T21:33:46.027Z,7.47
2023-05-19T21:36:18.361Z,7.00
2023-05-19T21:38:50.747Z,6.32
2023-05-19T21:41:23.122Z,5.45
2023-05-19T21:43:55.460Z,6.60
2023-05-19T21:46:30.749Z,5.78
2023-05-19T21:49:03.847Z,4.93
2023-05-19T21:51:36.147Z,5.65
2023-05-19T21:54:08.504Z,4.85
2023-05-19T21:56:40.960Z,5.07
2023-05-19T21:59:13.397Z,5.05
2023-05-19T22:01:46.048Z,5.05
2023-05-19T22:04:19.791Z,4.68
2023-05-19T22:06:52.193Z,6.03
2023-05-19T22:09:24.580Z,4.57
2023-05-19T22:11:56.936Z,5.00
2023-05-19T22:14:29.282Z,4.63
2023-05-19T22:17:02.047Z,5.25
2023-05-19T22:19:35.076Z,4.25
2023-05-19T22:22:13.896Z,4.53
2023-05-19T22:24:46.842Z,4.80
2023-05-19T22:27:19.181Z,4.53
2023-05-19T22:29:51.695Z,4.30
2023-05-19T22:32:24.194Z,3.72
2023-05-19T22:34:57.427Z,5.07
2023-05-19T22:37:29.836Z,4.55
2023-05-19T22:40:02.391Z,5.80
2023-05-19T22:42:34.786Z,5.30
2023-05-19T22:45:08.285Z,4.63
2023-05-19T22:47:40.726Z,4.25
2023-05-19T22:50:14.074Z,4.80
2023-05-19T22:52:46.447Z,4.80
2023-05-19T22:55:18.951Z,4.25
2023-05-19T22:57:51.352Z,7.18
2023-05-19T23:00:23.876Z,7.18
2023-05-19T23:02:57.614Z,6.60
2023-05-19T23:05:30.739Z,5.22
2023-05-19T23:08:03.191Z,4.40
2023-05-19T23:10:35.607Z,4.80
2023-05-19T23:13:08.883Z,5.00
2023-05-19T23:15:41.338Z,4.93
2023-05-19T23:18:14.415Z,6.25
2023-05-19T23:20:47.473Z,5.00
2023-05-19T23:23:19.884Z,4.65
2023-05-19T23:25:52.307Z,5.30
2023-05-19T23:28:24.664Z,5.70
2023-05-19T23:30:57.117Z,4.20
2023-05-19T23:33:29.505Z,6.13
2023-05-19T23:36:06.760Z,5.10
2023-05-19T23:38:39.281Z,4.70
2023-05-19T23:41:11.883Z,4.60
2023-05-19T23:43:47.388Z,5.43
2023-05-19T23:46:19.886Z,4.53
2023-05-19T23:48:52.325Z,5.60
2023-05-19T23:51:25.529Z,4.40
2023-05-19T23:53:58.184Z,4.75
2023-05-19T23:56:30.564Z,3.50
2023-05-19T23:59:02.941Z,4.13
